sensor_id;sensor_type;location;lat;lon;timestamp;P1;durP1;ratioP1;P2;durP2;ratioP2
18983;SDS011;9626;52.552;13.436;2023-02-26T00:01:21;4.57;;;1.07;;
18983;SDS011;9626;52.552;13.436;2023-02-26T00:03:50;4.07;;;1.10;;
18983;SDS011;9626;52.552;13.436;2023-02-26T00:06:17;3.70;;;1.43;;
18983;SDS011;9626;52.552;13.436;2023-02-26T00:08:43;3.87;;;1.43;;
18983;SDS011;9626;52.552;13.436;2023-02-26T00:11:10;1.80;;;0.97;;
18983;SDS011;9626;52.552;13.436;2023-02-26T00:13:37;1.63;;;0.83;;
18983;SDS011;9626;52.552;13.436;2023-02-26T00:16:28;2.53;;;0.90;;
18983;SDS011;9626;52.552;13.436;2023-02-26T00:18:55;2.00;;;1.27;;
18983;SDS011;9626;52.552;13.436;2023-02-26T00:21:22;2.30;;;0.90;;
18983;SDS011;9626;52.552;13.436;2023-02-26T00:23:49;1.97;;;1.07;;
18983;SDS011;9626;52.552;13.436;2023-02-26T00:26:15;2.90;;;1.00;;
18983;SDS011;9626;52.552;13.436;2023-02-26T00:28:41;7.23;;;1.30;;
18983;SDS011;9626;52.552;13.436;2023-02-26T00:31:08;1.93;;;1.00;;
18983;SDS011;9626;52.552;13.436;2023-02-26T00:33:34;3.10;;;1.27;;
18983;SDS011;9626;52.552;13.436;2023-02-26T00:36:22;3.20;;;1.50;;
18983;SDS011;9626;52.552;13.436;2023-02-26T00:41:37;4.20;;;1.93;;
18983;SDS011;9626;52.552;13.436;2023-02-26T00:44:04;3.43;;;1.60;;
18983;SDS011;9626;52.552;13.436;2023-02-26T00:52:00;3.53;;;1.20;;
18983;SDS011;9626;52.552;13.436;2023-02-26T00:54:30;3.80;;;1.30;;
18983;SDS011;9626;52.552;13.436;2023-02-26T00:56:57;1.97;;;0.97;;
18983;SDS011;9626;52.552;13.436;2023-02-26T00:59:24;1.80;;;1.00;;
18983;SDS011;9626;52.552;13.436;2023-02-26T01:01:51;2.00;;;1.00;;
18983;SDS011;9626;52.552;13.436;2023-02-26T01:04:18;3.43;;;0.97;;
18983;SDS011;9626;52.552;13.436;2023-02-26T01:06:47;2.23;;;0.97;;
18983;SDS011;9626;52.552;13.436;2023-02-26T01:11:53;2.70;;;1.10;;
18983;SDS011;9626;52.552;13.436;2023-02-26T01:14:20;2.13;;;1.00;;
18983;SDS011;9626;52.552;13.436;2023-02-26T01:16:49;1.33;;;0.80;;
18983;SDS011;9626;52.552;13.436;2023-02-26T01:22:00;2.00;;;0.80;;
18983;SDS011;9626;52.552;13.436;2023-02-26T01:24:37;3.27;;;1.07;;
18983;SDS011;9626;52.552;13.436;2023-02-26T01:27:03;2.63;;;0.90;;
18983;SDS011;9626;52.552;13.436;2023-02-26T01:29:30;2.23;;;0.87;;
18983;SDS011;9626;52.552;13.436;2023-02-26T01:32:03;1.80;;;0.70;;
18983;SDS011;9626;52.552;13.436;2023-02-26T01:34:41;3.10;;;1.10;;
18983;SDS011;9626;52.552;13.436;2023-02-26T01:42:50;2.83;;;1.00;;
18983;SDS011;9626;52.552;13.436;2023-02-26T01:45:31;2.20;;;1.07;;
18983;SDS011;9626;52.552;13.436;2023-02-26T01:48:09;2.57;;;1.00;;
18983;SDS011;9626;52.552;13.436;2023-02-26T01:50:42;2.53;;;0.90;;
18983;SDS011;9626;52.552;13.436;2023-02-26T01:53:22;5.40;;;0.90;;
18983;SDS011;9626;52.552;13.436;2023-02-26T01:55:55;1.90;;;0.90;;
18983;SDS011;9626;52.552;13.436;2023-02-26T01:58:42;1.20;;;0.80;;
18983;SDS011;9626;52.552;13.436;2023-02-26T02:01:10;2.23;;;0.87;;
18983;SDS011;9626;52.552;13.436;2023-02-26T02:03:37;2.27;;;0.93;;
18983;SDS011;9626;52.552;13.436;2023-02-26T02:06:07;2.83;;;1.17;;
18983;SDS011;9626;52.552;13.436;2023-02-26T02:08:44;3.17;;;0.90;;
18983;SDS011;9626;52.552;13.436;2023-02-26T02:11:11;4.00;;;1.20;;
18983;SDS011;9626;52.552;13.436;2023-02-26T02:13:40;1.90;;;0.97;;
18983;SDS011;9626;52.552;13.436;2023-02-26T02:16:36;4.73;;;1.00;;
18983;SDS011;9626;52.552;13.436;2023-02-26T02:30:57;2.90;;;0.90;;
18983;SDS011;9626;52.552;13.436;2023-02-26T02:33:49;2.17;;;0.90;;
18983;SDS011;9626;52.552;13.436;2023-02-26T02:41:46;2.50;;;0.83;;
18983;SDS011;9626;52.552;13.436;2023-02-26T02:44:18;4.23;;;1.23;;
18983;SDS011;9626;52.552;13.436;2023-02-26T02:46:49;1.80;;;0.90;;
18983;SDS011;9626;52.552;13.436;2023-02-26T02:49:23;1.23;;;0.83;;
18983;SDS011;9626;52.552;13.436;2023-02-26T02:51:55;2.33;;;0.90;;
18983;SDS011;9626;52.552;13.436;2023-02-26T02:54:46;3.63;;;0.80;;
18983;SDS011;9626;52.552;13.436;2023-02-26T02:57:27;3.43;;;1.03;;
18983;SDS011;9626;52.552;13.436;2023-02-26T03:00:02;3.77;;;1.17;;
18983;SDS011;9626;52.552;13.436;2023-02-26T03:05:22;3.37;;;1.17;;
18983;SDS011;9626;52.552;13.436;2023-02-26T03:08:00;1.67;;;0.80;;
18983;SDS011;9626;52.552;13.436;2023-02-26T03:10:29;3.60;;;0.90;;
18983;SDS011;9626;52.552;13.436;2023-02-26T03:12:56;5.67;;;1.10;;
18983;SDS011;9626;52.552;13.436;2023-02-26T03:15:29;1.50;;;0.70;;
18983;SDS011;9626;52.552;13.436;2023-02-26T03:21:12;5.57;;;1.07;;
18983;SDS011;9626;52.552;13.436;2023-02-26T03:24:01;2.70;;;0.90;;
18983;SDS011;9626;52.552;13.436;2023-02-26T03:26:53;4.00;;;1.00;;
18983;SDS011;9626;52.552;13.436;2023-02-26T03:29:27;1.80;;;0.87;;
18983;SDS011;9626;52.552;13.436;2023-02-26T03:32:28;0.93;;;0.63;;
18983;SDS011;9626;52.552;13.436;2023-02-26T03:35:04;2.40;;;0.80;;
18983;SDS011;9626;52.552;13.436;2023-02-26T03:37:40;3.03;;;1.00;;
18983;SDS011;9626;52.552;13.436;2023-02-26T03:40:14;4.50;;;1.10;;
18983;SDS011;9626;52.552;13.436;2023-02-26T03:42:45;1.10;;;0.77;;
18983;SDS011;9626;52.552;13.436;2023-02-26T03:45:18;3.97;;;0.80;;
18983;SDS011;9626;52.552;13.436;2023-02-26T03:47:50;3.67;;;0.80;;
18983;SDS011;9626;52.552;13.436;2023-02-26T03:52:45;1.67;;;0.83;;
18983;SDS011;9626;52.552;13.436;2023-02-26T03:55:18;4.87;;;1.00;;
18983;SDS011;9626;52.552;13.436;2023-02-26T03:57:48;4.00;;;0.90;;
18983;SDS011;9626;52.552;13.436;2023-02-26T04:00:14;5.20;;;1.10;;
18983;SDS011;9626;52.552;13.436;2023-02-26T04:05:37;3.17;;;0.90;;
18983;SDS011;9626;52.552;13.436;2023-02-26T04:08:07;2.47;;;0.80;;
18983;SDS011;9626;52.552;13.436;2023-02-26T04:10:35;4.57;;;1.10;;
18983;SDS011;9626;52.552;13.436;2023-02-26T04:13:06;2.93;;;0.80;;
18983;SDS011;9626;52.552;13.436;2023-02-26T04:15:33;1.33;;;0.83;;
18983;SDS011;9626;52.552;13.436;2023-02-26T04:17:59;4.63;;;1.03;;
18983;SDS011;9626;52.552;13.436;2023-02-26T04:20:25;3.03;;;0.60;;
18983;SDS011;9626;52.552;13.436;2023-02-26T04:22:51;3.30;;;0.80;;
18983;SDS011;9626;52.552;13.436;2023-02-26T04:25:17;1.73;;;0.90;;
18983;SDS011;9626;52.552;13.436;2023-02-26T04:27:43;2.13;;;0.80;;
18983;SDS011;9626;52.552;13.436;2023-02-26T04:30:09;3.63;;;0.87;;
18983;SDS011;9626;52.552;13.436;2023-02-26T04:32:35;3.47;;;1.00;;
18983;SDS011;9626;52.552;13.436;2023-02-26T04:35:02;2.43;;;0.90;;
18983;SDS011;9626;52.552;13.436;2023-02-26T04:37:28;3.67;;;0.90;;
18983;SDS011;9626;52.552;13.436;2023-02-26T04:39:54;2.80;;;0.97;;
18983;SDS011;9626;52.552;13.436;2023-02-26T04:42:20;4.80;;;0.90;;
18983;SDS011;9626;52.552;13.436;2023-02-26T04:44:46;4.03;;;1.00;;
18983;SDS011;9626;52.552;13.436;2023-02-26T04:47:12;2.37;;;0.77;;
18983;SDS011;9626;52.552;13.436;2023-02-26T04:49:38;2.37;;;1.10;;
18983;SDS011;9626;52.552;13.436;2023-02-26T04:52:04;1.90;;;0.70;;
18983;SDS011;9626;52.552;13.436;2023-02-26T04:54:30;2.03;;;1.00;;
18983;SDS011;9626;52.552;13.436;2023-02-26T04:56:56;2.73;;;1.07;;
18983;SDS011;9626;52.552;13.436;2023-02-26T04:59:22;1.87;;;0.83;;
18983;SDS011;9626;52.552;13.436;2023-02-26T05:01:48;1.47;;;1.00;;
18983;SDS011;9626;52.552;13.436;2023-02-26T05:04:14;1.30;;;0.90;;
18983;SDS011;9626;52.552;13.436;2023-02-26T05:06:40;3.63;;;0.87;;
18983;SDS011;9626;52.552;13.436;2023-02-26T05:09:06;4.40;;;0.93;;
18983;SDS011;9626;52.552;13.436;2023-02-26T05:11:32;2.57;;;0.90;;
18983;SDS011;9626;52.552;13.436;2023-02-26T05:13:58;6.30;;;1.40;;
18983;SDS011;9626;52.552;13.436;2023-02-26T05:16:24;3.33;;;1.50;;
18983;SDS011;9626;52.552;13.436;2023-02-26T05:18:50;3.90;;;1.13;;
18983;SDS011;9626;52.552;13.436;2023-02-26T05:21:16;3.87;;;0.80;;
18983;SDS011;9626;52.552;13.436;2023-02-26T05:23:42;3.80;;;1.00;;
18983;SDS011;9626;52.552;13.436;2023-02-26T05:26:08;2.87;;;0.90;;
18983;SDS011;9626;52.552;13.436;2023-02-26T05:28:35;3.07;;;0.90;;
18983;SDS011;9626;52.552;13.436;2023-02-26T05:31:01;2.60;;;0.70;;
18983;SDS011;9626;52.552;13.436;2023-02-26T05:33:27;4.67;;;1.20;;
18983;SDS011;9626;52.552;13.436;2023-02-26T05:35:53;1.67;;;0.70;;
18983;SDS011;9626;52.552;13.436;2023-02-26T05:38:19;2.40;;;1.00;;
18983;SDS011;9626;52.552;13.436;2023-02-26T05:40:45;4.37;;;1.20;;
18983;SDS011;9626;52.552;13.436;2023-02-26T05:43:11;2.23;;;0.90;;
18983;SDS011;9626;52.552;13.436;2023-02-26T05:45:37;2.80;;;0.90;;
18983;SDS011;9626;52.552;13.436;2023-02-26T05:48:03;1.50;;;0.63;;
18983;SDS011;9626;52.552;13.436;2023-02-26T05:50:29;5.47;;;1.03;;
18983;SDS011;9626;52.552;13.436;2023-02-26T05:52:55;2.63;;;1.00;;
18983;SDS011;9626;52.552;13.436;2023-02-26T05:55:22;2.63;;;0.70;;
18983;SDS011;9626;52.552;13.436;2023-02-26T05:57:48;5.10;;;0.87;;
18983;SDS011;9626;52.552;13.436;2023-02-26T06:00:14;1.90;;;0.80;;
18983;SDS011;9626;52.552;13.436;2023-02-26T06:02:40;3.40;;;0.70;;
18983;SDS011;9626;52.552;13.436;2023-02-26T06:05:07;2.87;;;1.00;;
18983;SDS011;9626;52.552;13.436;2023-02-26T06:07:33;1.83;;;0.80;;
18983;SDS011;9626;52.552;13.436;2023-02-26T06:09:59;1.50;;;0.70;;
18983;SDS011;9626;52.552;13.436;2023-02-26T06:12:25;3.53;;;1.00;;
18983;SDS011;9626;52.552;13.436;2023-02-26T06:14:51;2.67;;;0.90;;
18983;SDS011;9626;52.552;13.436;2023-02-26T06:17:17;1.90;;;1.10;;
18983;SDS011;9626;52.552;13.436;2023-02-26T06:19:43;2.70;;;0.77;;
18983;SDS011;9626;52.552;13.436;2023-02-26T06:22:10;1.77;;;0.90;;
18983;SDS011;9626;52.552;13.436;2023-02-26T06:24:36;2.63;;;0.90;;
18983;SDS011;9626;52.552;13.436;2023-02-26T06:27:02;2.53;;;1.00;;
18983;SDS011;9626;52.552;13.436;2023-02-26T06:29:28;2.50;;;1.10;;
18983;SDS011;9626;52.552;13.436;2023-02-26T06:31:54;4.50;;;1.13;;
18983;SDS011;9626;52.552;13.436;2023-02-26T06:34:20;1.50;;;1.00;;
18983;SDS011;9626;52.552;13.436;2023-02-26T06:36:47;1.20;;;1.00;;
18983;SDS011;9626;52.552;13.436;2023-02-26T06:39:13;2.63;;;1.00;;
18983;SDS011;9626;52.552;13.436;2023-02-26T06:41:39;1.90;;;0.80;;
18983;SDS011;9626;52.552;13.436;2023-02-26T06:44:05;3.80;;;1.10;;
18983;SDS011;9626;52.552;13.436;2023-02-26T06:46:31;1.93;;;0.90;;
18983;SDS011;9626;52.552;13.436;2023-02-26T06:48:57;1.83;;;1.00;;
18983;SDS011;9626;52.552;13.436;2023-02-26T06:51:23;1.97;;;0.77;;
18983;SDS011;9626;52.552;13.436;2023-02-26T06:53:49;2.60;;;0.90;;
18983;SDS011;9626;52.552;13.436;2023-02-26T06:56:15;1.40;;;0.70;;
18983;SDS011;9626;52.552;13.436;2023-02-26T06:58:41;3.40;;;1.03;;
18983;SDS011;9626;52.552;13.436;2023-02-26T07:01:07;5.00;;;1.00;;
18983;SDS011;9626;52.552;13.436;2023-02-26T07:03:34;4.00;;;1.10;;
18983;SDS011;9626;52.552;13.436;2023-02-26T07:06:00;3.73;;;1.07;;
18983;SDS011;9626;52.552;13.436;2023-02-26T07:08:26;2.83;;;1.07;;
18983;SDS011;9626;52.552;13.436;2023-02-26T07:10:52;1.63;;;0.90;;
18983;SDS011;9626;52.552;13.436;2023-02-26T07:13:18;1.93;;;0.70;;
18983;SDS011;9626;52.552;13.436;2023-02-26T07:15:44;2.93;;;0.80;;
18983;SDS011;9626;52.552;13.436;2023-02-26T07:18:11;2.17;;;1.23;;
18983;SDS011;9626;52.552;13.436;2023-02-26T07:20:37;5.83;;;1.53;;
18983;SDS011;9626;52.552;13.436;2023-02-26T07:23:03;2.30;;;0.97;;
18983;SDS011;9626;52.552;13.436;2023-02-26T07:25:29;1.63;;;0.90;;
18983;SDS011;9626;52.552;13.436;2023-02-26T07:27:55;4.00;;;1.17;;
18983;SDS011;9626;52.552;13.436;2023-02-26T07:30:22;1.00;;;0.70;;
18983;SDS011;9626;52.552;13.436;2023-02-26T07:32:48;4.73;;;1.03;;
18983;SDS011;9626;52.552;13.436;2023-02-26T07:35:14;2.00;;;1.00;;
18983;SDS011;9626;52.552;13.436;2023-02-26T07:37:40;1.80;;;0.93;;
18983;SDS011;9626;52.552;13.436;2023-02-26T07:40:07;2.60;;;0.83;;
18983;SDS011;9626;52.552;13.436;2023-02-26T07:42:33;2.13;;;0.80;;
18983;SDS011;9626;52.552;13.436;2023-02-26T07:44:59;2.63;;;1.03;;
18983;SDS011;9626;52.552;13.436;2023-02-26T07:47:25;2.30;;;0.97;;
18983;SDS011;9626;52.552;13.436;2023-02-26T07:49:52;2.57;;;0.90;;
18983;SDS011;9626;52.552;13.436;2023-02-26T07:52:18;2.63;;;1.13;;
18983;SDS011;9626;52.552;13.436;2023-02-26T07:54:44;3.33;;;1.27;;
18983;SDS011;9626;52.552;13.436;2023-02-26T07:57:10;3.10;;;0.90;;
18983;SDS011;9626;52.552;13.436;2023-02-26T07:59:36;2.50;;;0.80;;
18983;SDS011;9626;52.552;13.436;2023-02-26T08:02:02;3.07;;;1.87;;
18983;SDS011;9626;52.552;13.436;2023-02-26T08:04:28;2.40;;;1.07;;
18983;SDS011;9626;52.552;13.436;2023-02-26T08:06:54;2.50;;;1.10;;
18983;SDS011;9626;52.552;13.436;2023-02-26T08:09:21;2.47;;;1.20;;
18983;SDS011;9626;52.552;13.436;2023-02-26T08:11:48;1.60;;;1.07;;
18983;SDS011;9626;52.552;13.436;2023-02-26T08:14:14;2.13;;;0.70;;
18983;SDS011;9626;52.552;13.436;2023-02-26T08:16:40;2.03;;;0.90;;
18983;SDS011;9626;52.552;13.436;2023-02-26T08:19:06;2.43;;;1.03;;
18983;SDS011;9626;52.552;13.436;2023-02-26T08:21:32;2.20;;;1.30;;
18983;SDS011;9626;52.552;13.436;2023-02-26T08:23:58;3.17;;;1.23;;
18983;SDS011;9626;52.552;13.436;2023-02-26T08:26:24;3.00;;;1.37;;
18983;SDS011;9626;52.552;13.436;2023-02-26T08:28:50;2.20;;;0.90;;
18983;SDS011;9626;52.552;13.436;2023-02-26T08:31:17;1.23;;;1.00;;
18983;SDS011;9626;52.552;13.436;2023-02-26T08:33:43;3.47;;;1.30;;
18983;SDS011;9626;52.552;13.436;2023-02-26T08:36:09;3.50;;;1.50;;
18983;SDS011;9626;52.552;13.436;2023-02-26T08:38:39;8.10;;;1.50;;
18983;SDS011;9626;52.552;13.436;2023-02-26T08:41:05;5.37;;;1.03;;
18983;SDS011;9626;52.552;13.436;2023-02-26T08:43:31;6.47;;;1.57;;
18983;SDS011;9626;52.552;13.436;2023-02-26T08:46:00;2.67;;;1.47;;
18983;SDS011;9626;52.552;13.436;2023-02-26T08:48:26;2.97;;;1.70;;
18983;SDS011;9626;52.552;13.436;2023-02-26T08:50:55;2.97;;;1.07;;
18983;SDS011;9626;52.552;13.436;2023-02-26T08:53:48;2.87;;;1.30;;
18983;SDS011;9626;52.552;13.436;2023-02-26T08:56:27;1.80;;;1.20;;
18983;SDS011;9626;52.552;13.436;2023-02-26T08:59:06;1.93;;;1.50;;
18983;SDS011;9626;52.552;13.436;2023-02-26T09:01:38;2.87;;;1.23;;
18983;SDS011;9626;52.552;13.436;2023-02-26T09:04:10;5.03;;;1.20;;
18983;SDS011;9626;52.552;13.436;2023-02-26T09:06:42;3.13;;;1.10;;
18983;SDS011;9626;52.552;13.436;2023-02-26T09:09:24;1.70;;;1.20;;
18983;SDS011;9626;52.552;13.436;2023-02-26T09:11:51;2.10;;;0.97;;
18983;SDS011;9626;52.552;13.436;2023-02-26T09:14:20;2.90;;;1.40;;
18983;SDS011;9626;52.552;13.436;2023-02-26T09:16:46;2.43;;;1.17;;
18983;SDS011;9626;52.552;13.436;2023-02-26T09:19:12;2.80;;;0.90;;
18983;SDS011;9626;52.552;13.436;2023-02-26T09:21:50;1.27;;;0.80;;
18983;SDS011;9626;52.552;13.436;2023-02-26T09:27:55;2.17;;;1.10;;
18983;SDS011;9626;52.552;13.436;2023-02-26T09:30:37;1.60;;;0.97;;
18983;SDS011;9626;52.552;13.436;2023-02-26T09:33:09;4.87;;;1.30;;
18983;SDS011;9626;52.552;13.436;2023-02-26T09:35:55;1.43;;;1.20;;
18983;SDS011;9626;52.552;13.436;2023-02-26T09:38:45;3.43;;;0.97;;
18983;SDS011;9626;52.552;13.436;2023-02-26T09:52:26;2.97;;;1.20;;
18983;SDS011;9626;52.552;13.436;2023-02-26T09:55:03;3.13;;;1.10;;
18983;SDS011;9626;52.552;13.436;2023-02-26T09:57:36;3.90;;;1.23;;
18983;SDS011;9626;52.552;13.436;2023-02-26T10:02:59;1.13;;;1.00;;
18983;SDS011;9626;52.552;13.436;2023-02-26T10:05:34;2.43;;;1.00;;
18983;SDS011;9626;52.552;13.436;2023-02-26T10:08:14;2.33;;;0.90;;
18983;SDS011;9626;52.552;13.436;2023-02-26T10:11:02;1.90;;;0.90;;
18983;SDS011;9626;52.552;13.436;2023-02-26T10:16:10;2.73;;;1.00;;
18983;SDS011;9626;52.552;13.436;2023-02-26T10:18:59;2.73;;;0.90;;
18983;SDS011;9626;52.552;13.436;2023-02-26T10:21:31;2.53;;;1.10;;
18983;SDS011;9626;52.552;13.436;2023-02-26T10:24:05;4.27;;;0.90;;
18983;SDS011;9626;52.552;13.436;2023-02-26T10:26:52;3.00;;;1.13;;
18983;SDS011;9626;52.552;13.436;2023-02-26T10:29:26;2.40;;;1.20;;
18983;SDS011;9626;52.552;13.436;2023-02-26T10:32:10;2.00;;;1.10;;
18983;SDS011;9626;52.552;13.436;2023-02-26T10:37:17;5.00;;;1.57;;
18983;SDS011;9626;52.552;13.436;2023-02-26T10:39:48;1.67;;;1.10;;
18983;SDS011;9626;52.552;13.436;2023-02-26T10:42:20;2.97;;;0.90;;
18983;SDS011;9626;52.552;13.436;2023-02-26T10:44:54;3.43;;;1.00;;
18983;SDS011;9626;52.552;13.436;2023-02-26T10:50:45;2.00;;;1.10;;
18983;SDS011;9626;52.552;13.436;2023-02-26T10:53:14;4.43;;;1.20;;
18983;SDS011;9626;52.552;13.436;2023-02-26T10:58:25;6.10;;;3.30;;
18983;SDS011;9626;52.552;13.436;2023-02-26T11:00:52;5.13;;;2.80;;
18983;SDS011;9626;52.552;13.436;2023-02-26T11:03:33;2.70;;;1.60;;
18983;SDS011;9626;52.552;13.436;2023-02-26T11:06:03;4.07;;;1.87;;
18983;SDS011;9626;52.552;13.436;2023-02-26T11:08:32;8.13;;;2.50;;
18983;SDS011;9626;52.552;13.436;2023-02-26T11:11:02;2.93;;;1.10;;
18983;SDS011;9626;52.552;13.436;2023-02-26T11:13:31;1.33;;;0.77;;
18983;SDS011;9626;52.552;13.436;2023-02-26T11:16:05;1.73;;;1.00;;
18983;SDS011;9626;52.552;13.436;2023-02-26T11:18:49;1.97;;;0.70;;
18983;SDS011;9626;52.552;13.436;2023-02-26T11:21:29;1.40;;;0.63;;
18983;SDS011;9626;52.552;13.436;2023-02-26T11:24:02;2.67;;;1.43;;
18983;SDS011;9626;52.552;13.436;2023-02-26T11:26:36;1.07;;;0.80;;
18983;SDS011;9626;52.552;13.436;2023-02-26T11:29:04;1.87;;;0.90;;
18983;SDS011;9626;52.552;13.436;2023-02-26T11:31:30;2.33;;;0.80;;
18983;SDS011;9626;52.552;13.436;2023-02-26T11:33:58;2.50;;;1.00;;
18983;SDS011;9626;52.552;13.436;2023-02-26T11:36:28;4.53;;;0.97;;
18983;SDS011;9626;52.552;13.436;2023-02-26T11:39:00;1.73;;;1.00;;
18983;SDS011;9626;52.552;13.436;2023-02-26T11:41:29;4.10;;;1.00;;
18983;SDS011;9626;52.552;13.436;2023-02-26T11:44:11;1.97;;;1.13;;
18983;SDS011;9626;52.552;13.436;2023-02-26T11:46:44;4.80;;;1.37;;
18983;SDS011;9626;52.552;13.436;2023-02-26T11:49:15;4.27;;;1.13;;
18983;SDS011;9626;52.552;13.436;2023-02-26T11:51:44;2.77;;;1.10;;
18983;SDS011;9626;52.552;13.436;2023-02-26T11:54:22;4.97;;;1.90;;
18983;SDS011;9626;52.552;13.436;2023-02-26T11:56:49;3.10;;;1.23;;
18983;SDS011;9626;52.552;13.436;2023-02-26T11:59:19;1.43;;;0.87;;
18983;SDS011;9626;52.552;13.436;2023-02-26T12:01:48;2.67;;;1.00;;
18983;SDS011;9626;52.552;13.436;2023-02-26T12:04:24;3.53;;;1.17;;
18983;SDS011;9626;52.552;13.436;2023-02-26T12:06:51;3.33;;;1.60;;
18983;SDS011;9626;52.552;13.436;2023-02-26T12:09:18;3.20;;;1.90;;
18983;SDS011;9626;52.552;13.436;2023-02-26T12:22:41;2.63;;;1.37;;
18983;SDS011;9626;52.552;13.436;2023-02-26T12:33:54;3.50;;;1.63;;
18983;SDS011;9626;52.552;13.436;2023-02-26T12:45:17;1.93;;;1.20;;
18983;SDS011;9626;52.552;13.436;2023-02-26T12:59:34;2.10;;;1.00;;
18983;SDS011;9626;52.552;13.436;2023-02-26T13:05:11;2.27;;;1.03;;
18983;SDS011;9626;52.552;13.436;2023-02-26T13:10:39;1.87;;;0.90;;
18983;SDS011;9626;52.552;13.436;2023-02-26T13:17:02;2.57;;;1.50;;
18983;SDS011;9626;52.552;13.436;2023-02-26T13:19:48;3.07;;;1.37;;
18983;SDS011;9626;52.552;13.436;2023-02-26T13:22:22;2.57;;;1.20;;
18983;SDS011;9626;52.552;13.436;2023-02-26T13:25:15;1.33;;;1.00;;
18983;SDS011;9626;52.552;13.436;2023-02-26T13:28:10;2.20;;;1.20;;
18983;SDS011;9626;52.552;13.436;2023-02-26T13:30:49;2.47;;;1.33;;
18983;SDS011;9626;52.552;13.436;2023-02-26T13:33:20;2.43;;;1.10;;
18983;SDS011;9626;52.552;13.436;2023-02-26T13:35:52;1.70;;;1.10;;
18983;SDS011;9626;52.552;13.436;2023-02-26T13:41:09;4.33;;;1.67;;
18983;SDS011;9626;52.552;13.436;2023-02-26T13:49:22;9.00;;;1.20;;
18983;SDS011;9626;52.552;13.436;2023-02-26T13:51:55;1.50;;;1.00;;
18983;SDS011;9626;52.552;13.436;2023-02-26T13:54:32;2.50;;;1.33;;
18983;SDS011;9626;52.552;13.436;2023-02-26T13:57:24;1.70;;;1.10;;
18983;SDS011;9626;52.552;13.436;2023-02-26T14:00:25;1.07;;;0.80;;
18983;SDS011;9626;52.552;13.436;2023-02-26T14:02:54;1.10;;;0.83;;
18983;SDS011;9626;52.552;13.436;2023-02-26T14:05:29;0.77;;;0.63;;
18983;SDS011;9626;52.552;13.436;2023-02-26T14:10:43;3.93;;;1.63;;
18983;SDS011;9626;52.552;13.436;2023-02-26T14:13:21;1.73;;;0.87;;
18983;SDS011;9626;52.552;13.436;2023-02-26T14:16:09;1.20;;;0.87;;
18983;SDS011;9626;52.552;13.436;2023-02-26T14:23:56;2.67;;;1.23;;
18983;SDS011;9626;52.552;13.436;2023-02-26T14:26:26;2.83;;;1.37;;
18983;SDS011;9626;52.552;13.436;2023-02-26T14:29:19;1.40;;;1.23;;
18983;SDS011;9626;52.552;13.436;2023-02-26T14:31:54;1.60;;;1.30;;
18983;SDS011;9626;52.552;13.436;2023-02-26T14:34:47;2.47;;;1.10;;
18983;SDS011;9626;52.552;13.436;2023-02-26T14:37:14;3.47;;;1.80;;
18983;SDS011;9626;52.552;13.436;2023-02-26T14:39:50;2.83;;;1.40;;
18983;SDS011;9626;52.552;13.436;2023-02-26T14:42:31;2.27;;;1.10;;
18983;SDS011;9626;52.552;13.436;2023-02-26T14:45:25;3.70;;;2.00;;
18983;SDS011;9626;52.552;13.436;2023-02-26T14:47:54;6.77;;;4.40;;
18983;SDS011;9626;52.552;13.436;2023-02-26T14:50:22;1.70;;;1.50;;
18983;SDS011;9626;52.552;13.436;2023-02-26T14:59:17;2.50;;;1.77;;
18983;SDS011;9626;52.552;13.436;2023-02-26T15:01:35;3.83;;;3.00;;
18983;SDS011;9626;52.552;13.436;2023-02-26T15:04:36;6.20;;;3.30;;
18983;SDS011;9626;52.552;13.436;2023-02-26T15:15:56;3.50;;;1.20;;
18983;SDS011;9626;52.552;13.436;2023-02-26T15:23:59;1.60;;;1.10;;
18983;SDS011;9626;52.552;13.436;2023-02-26T15:26:27;1.20;;;0.80;;
18983;SDS011;9626;52.552;13.436;2023-02-26T15:29:03;3.43;;;0.83;;
18983;SDS011;9626;52.552;13.436;2023-02-26T15:31:42;1.23;;;0.80;;
18983;SDS011;9626;52.552;13.436;2023-02-26T15:34:21;1.60;;;1.07;;
18983;SDS011;9626;52.552;13.436;2023-02-26T15:36:50;3.60;;;1.00;;
18983;SDS011;9626;52.552;13.436;2023-02-26T15:39:26;1.83;;;1.07;;
18983;SDS011;9626;52.552;13.436;2023-02-26T15:41:54;4.43;;;1.50;;
18983;SDS011;9626;52.552;13.436;2023-02-26T15:44:26;2.83;;;1.90;;
18983;SDS011;9626;52.552;13.436;2023-02-26T15:46:56;2.90;;;1.90;;
18983;SDS011;9626;52.552;13.436;2023-02-26T15:49:27;2.67;;;1.60;;
18983;SDS011;9626;52.552;13.436;2023-02-26T15:51:57;2.13;;;1.40;;
18983;SDS011;9626;52.552;13.436;2023-02-26T15:54:28;1.40;;;1.07;;
18983;SDS011;9626;52.552;13.436;2023-02-26T15:57:04;5.47;;;2.23;;
18983;SDS011;9626;52.552;13.436;2023-02-26T15:59:31;3.50;;;1.70;;
18983;SDS011;9626;52.552;13.436;2023-02-26T16:02:00;2.47;;;1.37;;
18983;SDS011;9626;52.552;13.436;2023-02-26T16:04:27;7.37;;;1.70;;
18983;SDS011;9626;52.552;13.436;2023-02-26T16:06:54;3.10;;;2.23;;
18983;SDS011;9626;52.552;13.436;2023-02-26T16:09:26;3.03;;;1.60;;
18983;SDS011;9626;52.552;13.436;2023-02-26T16:12:07;2.53;;;1.50;;
18983;SDS011;9626;52.552;13.436;2023-02-26T16:14:37;4.20;;;2.60;;
18983;SDS011;9626;52.552;13.436;2023-02-26T16:17:10;3.63;;;1.90;;
18983;SDS011;9626;52.552;13.436;2023-02-26T16:19:41;5.83;;;2.47;;
18983;SDS011;9626;52.552;13.436;2023-02-26T16:22:21;4.90;;;3.27;;
18983;SDS011;9626;52.552;13.436;2023-02-26T16:24:57;6.33;;;3.67;;
18983;SDS011;9626;52.552;13.436;2023-02-26T16:27:54;6.23;;;3.43;;
18983;SDS011;9626;52.552;13.436;2023-02-26T16:30:35;4.43;;;2.70;;
18983;SDS011;9626;52.552;13.436;2023-02-26T16:33:03;3.60;;;2.70;;
18983;SDS011;9626;52.552;13.436;2023-02-26T16:35:41;3.63;;;1.80;;
18983;SDS011;9626;52.552;13.436;2023-02-26T16:38:16;3.73;;;2.10;;
18983;SDS011;9626;52.552;13.436;2023-02-26T16:40:45;2.93;;;2.00;;
18983;SDS011;9626;52.552;13.436;2023-02-26T16:45:50;3.13;;;2.20;;
18983;SDS011;9626;52.552;13.436;2023-02-26T16:48:28;5.80;;;2.73;;
18983;SDS011;9626;52.552;13.436;2023-02-26T16:51:15;3.03;;;2.20;;
18983;SDS011;9626;52.552;13.436;2023-02-26T16:53:49;3.67;;;1.80;;
18983;SDS011;9626;52.552;13.436;2023-02-26T16:56:22;4.87;;;1.90;;
18983;SDS011;9626;52.552;13.436;2023-02-26T17:02:10;4.57;;;2.33;;
18983;SDS011;9626;52.552;13.436;2023-02-26T17:04:40;3.57;;;2.13;;
18983;SDS011;9626;52.552;13.436;2023-02-26T17:07:20;4.60;;;2.53;;
18983;SDS011;9626;52.552;13.436;2023-02-26T17:09:51;4.47;;;3.03;;
18983;SDS011;9626;52.552;13.436;2023-02-26T17:12:22;8.37;;;5.67;;
18983;SDS011;9626;52.552;13.436;2023-02-26T17:15:12;10.97;;;6.20;;
18983;SDS011;9626;52.552;13.436;2023-02-26T17:17:42;8.10;;;4.60;;
18983;SDS011;9626;52.552;13.436;2023-02-26T17:20:09;6.80;;;4.53;;
18983;SDS011;9626;52.552;13.436;2023-02-26T17:22:36;10.00;;;6.20;;
18983;SDS011;9626;52.552;13.436;2023-02-26T17:25:02;8.30;;;6.13;;
18983;SDS011;9626;52.552;13.436;2023-02-26T17:27:32;9.17;;;5.50;;
18983;SDS011;9626;52.552;13.436;2023-02-26T17:30:04;8.47;;;4.97;;
18983;SDS011;9626;52.552;13.436;2023-02-26T17:32:31;8.67;;;5.47;;
18983;SDS011;9626;52.552;13.436;2023-02-26T17:34:57;8.23;;;5.00;;
18983;SDS011;9626;52.552;13.436;2023-02-26T17:37:24;6.40;;;4.13;;
18983;SDS011;9626;52.552;13.436;2023-02-26T17:39:58;5.23;;;3.60;;
18983;SDS011;9626;52.552;13.436;2023-02-26T17:42:24;9.98;;;5.05;;
18983;SDS011;9626;52.552;13.436;2023-02-26T17:44:53;11.37;;;4.03;;
18983;SDS011;9626;52.552;13.436;2023-02-26T17:47:22;5.60;;;4.07;;
18983;SDS011;9626;52.552;13.436;2023-02-26T17:49:50;5.63;;;3.93;;
18983;SDS011;9626;52.552;13.436;2023-02-26T17:52:18;7.57;;;4.90;;
18983;SDS011;9626;52.552;13.436;2023-02-26T17:54:45;7.03;;;4.43;;
18983;SDS011;9626;52.552;13.436;2023-02-26T17:57:15;6.17;;;3.67;;
18983;SDS011;9626;52.552;13.436;2023-02-26T17:59:44;5.00;;;3.90;;
18983;SDS011;9626;52.552;13.436;2023-02-26T18:02:14;7.90;;;4.27;;